Turtle Creek, West Virginia
Current Conditions -  °F | °C
As of 2:54 PM on Thursday 30 Oct 2014 (Local Time) from KCRW Reporting Station
Overcast Overcast  
Wind Chill: 49°   Ceiling: 3700
Heat Index: 49°   Visibility: 10mi
Dew Point: 32°   Wind: 3mph
Humidity: 52%   Direction: 220°SW
Pressure: 30.1"   Gusts: NA
Location:  38.03°N, 81.87°W
Report Text: KCRW 301854Z 22003KT 10SM OVC037 09/00 A3010 RMK AO2 SLP194 T00940000
Loading
Personal Weather Stations






























Interactive Weather Map
Tropical Storm Tracking
New forecast layout! Learn more

10-Day Weather Forecast

Advertisements
Track Severe Weather on mobile